createdAt,value
2022-09-04T00:00:21.558Z,20.70
2022-09-04T00:03:15.709Z,20.60
2022-09-04T00:05:51.971Z,20.30
2022-09-04T00:08:30.929Z,20.30
2022-09-04T00:11:04.440Z,20.40
2022-09-04T00:13:37.714Z,20.50
2022-09-04T00:16:26.688Z,20.60
2022-09-04T00:19:03.815Z,20.50
2022-09-04T00:21:37.151Z,20.30
2022-09-04T00:24:10.714Z,20.60
2022-09-04T00:27:03.867Z,20.50
2022-09-04T00:29:37.193Z,20.50
2022-09-04T00:32:04.193Z,20.60
2022-09-04T00:34:46.038Z,20.40
2022-09-04T00:37:18.281Z,20.50
2022-09-04T00:39:55.233Z,20.90
2022-09-04T00:42:47.018Z,20.80
2022-09-04T00:45:41.634Z,20.90
2022-09-04T00:48:31.843Z,21.00
2022-09-04T00:51:03.005Z,20.40
2022-09-04T00:53:55.797Z,20.50
2022-09-04T00:56:44.579Z,20.60
2022-09-04T00:59:36.058Z,20.60
2022-09-04T01:02:31.707Z,20.30
2022-09-04T01:05:23.925Z,20.30
2022-09-04T01:07:59.463Z,20.40
2022-09-04T01:10:46.475Z,20.30
2022-09-04T01:13:24.068Z,20.00
2022-09-04T01:16:05.231Z,19.90
2022-09-04T01:19:03.545Z,19.90
2022-09-04T01:22:05.709Z,20.00
2022-09-04T01:24:53.979Z,20.10
2022-09-04T01:27:37.698Z,20.30
2022-09-04T01:30:09.793Z,20.30
2022-09-04T01:32:44.185Z,20.10
2022-09-04T01:35:20.758Z,20.30
2022-09-04T01:38:18.268Z,20.00
2022-09-04T01:40:55.250Z,19.80
2022-09-04T01:43:22.900Z,20.00
2022-09-04T01:45:55.335Z,20.50
2022-09-04T01:48:35.882Z,20.60
2022-09-04T01:51:12.660Z,20.40
2022-09-04T01:53:45.625Z,20.40
2022-09-04T01:56:44.371Z,20.40
2022-09-04T01:59:29.922Z,20.00
2022-09-04T02:02:09.356Z,19.90
2022-09-04T02:05:10.481Z,20.00
2022-09-04T02:08:11.318Z,20.00
2022-09-04T02:11:02.878Z,20.30
2022-09-04T02:13:56.397Z,20.50
2022-09-04T02:16:35.113Z,20.20
2022-09-04T02:19:20.423Z,20.20
2022-09-04T02:22:14.649Z,20.00
2022-09-04T02:24:53.362Z,19.90
2022-09-04T02:27:37.515Z,19.90
2022-09-04T02:30:10.188Z,19.70
2022-09-04T02:32:49.890Z,19.80
2022-09-04T02:35:21.168Z,20.00
2022-09-04T02:37:54.110Z,20.20
2022-09-04T02:40:32.605Z,19.90
2022-09-04T02:43:39.591Z,20.00
2022-09-04T02:46:27.973Z,20.10
2022-09-04T02:49:09.496Z,20.00
2022-09-04T02:52:13.672Z,20.30
2022-09-04T02:55:02.034Z,20.30
2022-09-04T02:57:40.709Z,20.10
2022-09-04T03:00:27.362Z,19.90
2022-09-04T03:03:34.696Z,19.70
2022-09-04T03:06:15.725Z,19.90
2022-09-04T03:08:57.080Z,19.90
2022-09-04T03:11:29.890Z,20.10
2022-09-04T03:14:06.877Z,19.90
2022-09-04T03:16:44.438Z,20.20
2022-09-04T03:19:18.391Z,20.10
2022-09-04T03:22:20.699Z,19.80
2022-09-04T03:25:06.376Z,19.90
2022-09-04T03:27:34.458Z,19.60
2022-09-04T03:30:09.569Z,19.80
2022-09-04T03:33:03.661Z,20.10
2022-09-04T03:35:37.707Z,19.90
2022-09-04T03:38:13.294Z,20.00
2022-09-04T03:41:19.371Z,20.00
2022-09-04T03:44:09.300Z,20.00
2022-09-04T03:46:59.773Z,20.00
2022-09-04T03:50:11.854Z,19.90
2022-09-04T03:53:13.680Z,19.80
2022-09-04T03:56:12.702Z,20.10
2022-09-04T03:58:57.493Z,20.30
2022-09-04T04:01:47.288Z,20.60
2022-09-04T04:04:44.027Z,20.30
2022-09-04T04:07:16.772Z,20.30
2022-09-04T04:09:49.371Z,20.10
2022-09-04T04:12:31.523Z,20.00
2022-09-04T04:15:12.529Z,20.20
2022-09-04T04:17:58.030Z,20.30
2022-09-04T04:20:41.895Z,20.60
2022-09-04T04:23:29.639Z,20.80
2022-09-04T04:26:21.560Z,20.90
2022-09-04T04:29:08.559Z,20.60
2022-09-04T04:31:44.660Z,20.20
2022-09-04T04:34:30.982Z,19.60
2022-09-04T04:37:10.134Z,19.50
2022-09-04T04:40:01.437Z,19.30
2022-09-04T04:42:48.442Z,19.50
2022-09-04T04:45:50.927Z,19.50
2022-09-04T04:48:48.008Z,19.70
2022-09-04T04:51:39.290Z,19.50
2022-09-04T04:54:43.079Z,19.70
2022-09-04T04:57:32.425Z,19.50
2022-09-04T05:00:12.148Z,19.30
2022-09-04T05:03:15.042Z,19.20
2022-09-04T05:06:12.438Z,18.90
2022-09-04T05:08:44.980Z,19.10
2022-09-04T05:11:23.943Z,18.80
2022-09-04T05:14:03.722Z,19.10
2022-09-04T05:16:52.210Z,18.80
2022-09-04T05:19:41.440Z,19.10
2022-09-04T05:22:34.559Z,19.90
2022-09-04T05:25:40.229Z,21.70
2022-09-04T05:28:38.398Z,23.10
2022-09-04T05:31:42.034Z,22.80
2022-09-04T05:34:31.138Z,23.40
2022-09-04T05:37:16.538Z,23.80
2022-09-04T05:40:18.098Z,23.70
2022-09-04T05:43:06.526Z,23.70
2022-09-04T05:45:44.706Z,22.70
2022-09-04T05:48:37.045Z,21.20
2022-09-04T05:51:40.139Z,21.00
2022-09-04T05:54:34.773Z,20.80
2022-09-04T05:57:41.229Z,21.30
2022-09-04T06:00:19.455Z,21.20
2022-09-04T06:03:07.469Z,21.30
2022-09-04T06:05:52.197Z,21.50
2022-09-04T06:08:46.334Z,21.50
2022-09-04T06:11:25.028Z,21.50
2022-09-04T06:14:19.477Z,21.50
2022-09-04T06:17:04.508Z,21.40
2022-09-04T06:20:14.579Z,21.10
2022-09-04T06:22:55.566Z,21.10
2022-09-04T06:25:58.831Z,21.40
2022-09-04T06:28:49.910Z,21.50
2022-09-04T06:31:19.887Z,21.50
2022-09-04T06:33:49.633Z,21.70
2022-09-04T06:37:07.895Z,21.70
2022-09-04T06:39:37.746Z,21.80
2022-09-04T06:42:25.903Z,21.80
2022-09-04T06:45:14.079Z,21.40
2022-09-04T06:47:57.343Z,21.60
2022-09-04T06:50:34.566Z,21.70
2022-09-04T06:53:19.836Z,21.80
2022-09-04T06:56:11.474Z,21.70
2022-09-04T06:59:15.767Z,21.30
2022-09-04T07:02:06.176Z,21.00
2022-09-04T07:04:54.777Z,20.40
2022-09-04T07:07:38.583Z,19.80
2022-09-04T07:10:11.957Z,20.20
2022-09-04T07:12:55.245Z,20.30
2022-09-04T07:15:46.949Z,20.60
2022-09-04T07:18:33.753Z,20.50
2022-09-04T07:21:40.087Z,20.50
2022-09-04T07:24:36.044Z,20.50
2022-09-04T07:27:41.272Z,20.90
2022-09-04T07:30:15.268Z,20.70
2022-09-04T07:32:47.811Z,20.90
2022-09-04T07:35:36.955Z,20.70
2022-09-04T07:38:37.649Z,20.80
2022-09-04T07:41:42.136Z,20.50
2022-09-04T07:44:14.671Z,20.20
2022-09-04T07:47:12.633Z,22.30
2022-09-04T07:49:49.189Z,23.30
2022-09-04T07:52:39.338Z,23.30
2022-09-04T07:55:23.791Z,23.50
2022-09-04T07:58:04.345Z,23.40
2022-09-04T08:00:55.518Z,22.90
2022-09-04T08:03:32.660Z,22.70
2022-09-04T08:06:27.348Z,22.80
2022-09-04T08:09:25.195Z,22.40
2022-09-04T08:12:18.017Z,23.00
2022-09-04T08:15:09.550Z,23.60
2022-09-04T08:18:04.361Z,23.70
2022-09-04T08:20:37.957Z,23.50
2022-09-04T08:23:13.997Z,23.50
2022-09-04T08:26:14.462Z,23.90
2022-09-04T08:29:03.299Z,22.90
2022-09-04T08:31:55.438Z,23.30
2022-09-04T08:34:47.469Z,23.50
2022-09-04T08:37:23.319Z,24.00
2022-09-04T08:40:02.309Z,23.40
2022-09-04T08:43:10.531Z,23.40
2022-09-04T08:45:56.853Z,23.10
2022-09-04T08:48:38.762Z,23.00
2022-09-04T08:51:05.499Z,23.20
2022-09-04T08:54:07.994Z,22.30
2022-09-04T08:56:41.159Z,22.80
2022-09-04T08:59:31.483Z,23.00
2022-09-04T09:02:34.968Z,23.40
2022-09-04T09:05:26.341Z,23.70
2022-09-04T09:08:31.503Z,23.10
2022-09-04T09:11:17.509Z,23.20
2022-09-04T09:14:08.427Z,23.00
2022-09-04T09:16:42.833Z,22.60
2022-09-04T09:19:29.611Z,22.70
2022-09-04T09:22:10.093Z,22.70
2022-09-04T09:24:59.698Z,22.70
2022-09-04T09:28:03.259Z,22.60
2022-09-04T09:30:54.876Z,22.60
2022-09-04T09:33:46.606Z,22.00
2022-09-04T09:36:40.109Z,22.10
2022-09-04T09:39:42.796Z,21.90
2022-09-04T09:42:27.974Z,21.60
2022-09-04T09:44:54.877Z,22.10
2022-09-04T09:47:57.765Z,22.10
2022-09-04T09:51:00.478Z,21.60
2022-09-04T09:53:49.471Z,21.60
2022-09-04T09:56:41.098Z,21.70
2022-09-04T09:59:34.302Z,21.80
2022-09-04T10:02:31.405Z,22.10
2022-09-04T10:05:43.108Z,21.80
2022-09-04T10:08:36.507Z,22.20
2022-09-04T10:11:19.994Z,22.30
2022-09-04T10:13:49.512Z,22.80
2022-09-04T10:16:36.922Z,22.60
2022-09-04T10:19:30.043Z,22.50
2022-09-04T10:22:21.579Z,22.70
2022-09-04T10:25:00.588Z,22.90
2022-09-04T10:28:02.769Z,23.00
2022-09-04T10:30:36.508Z,22.30
2022-09-04T10:33:32.344Z,22.40
2022-09-04T10:36:18.261Z,22.40
2022-09-04T10:39:37.207Z,22.60
2022-09-04T10:42:19.892Z,22.40
2022-09-04T10:44:56.243Z,22.50
2022-09-04T10:47:36.547Z,22.30
2022-09-04T10:50:30.329Z,22.20
2022-09-04T10:53:15.804Z,22.30
2022-09-04T10:56:01.831Z,22.40
2022-09-04T10:58:31.295Z,22.70
2022-09-04T11:01:28.304Z,22.70
2022-09-04T11:04:11.574Z,22.80
2022-09-04T11:07:12.214Z,22.30
2022-09-04T11:09:51.569Z,22.20
2022-09-04T11:12:40.117Z,22.60
2022-09-04T11:15:19.498Z,22.60
2022-09-04T11:18:01.400Z,22.50
2022-09-04T11:20:52.983Z,22.80
2022-09-04T11:23:50.642Z,22.00
2022-09-04T11:26:46.058Z,21.80
2022-09-04T11:29:25.762Z,22.30
2022-09-04T11:32:26.050Z,22.60
2022-09-04T11:34:52.943Z,22.80
2022-09-04T11:38:05.047Z,22.50
2022-09-04T11:40:51.091Z,22.50
2022-09-04T11:43:27.114Z,22.20
2022-09-04T11:46:12.759Z,22.50
2022-09-04T11:48:57.649Z,22.50
2022-09-04T11:51:51.313Z,22.80
2022-09-04T11:54:51.862Z,22.90
2022-09-04T11:58:13.531Z,22.70
2022-09-04T12:01:04.201Z,22.40
2022-09-04T12:03:51.832Z,22.40
2022-09-04T12:07:00.022Z,22.40
2022-09-04T12:10:01.236Z,22.50
2022-09-04T12:12:50.110Z,22.30
2022-09-04T12:15:38.636Z,22.30
2022-09-04T12:18:34.229Z,22.40
2022-09-04T12:21:18.113Z,22.30
2022-09-04T12:24:00.158Z,21.90
2022-09-04T12:26:59.853Z,22.20
2022-09-04T12:30:03.462Z,22.40
2022-09-04T12:33:08.284Z,22.20
2022-09-04T12:36:09.047Z,22.60
2022-09-04T12:38:39.556Z,22.80
2022-09-04T12:41:09.781Z,22.30
2022-09-04T12:44:01.752Z,22.60
2022-09-04T12:46:48.741Z,22.40
2022-09-04T12:49:17.120Z,22.70
2022-09-04T12:52:19.030Z,23.00
2022-09-04T12:55:04.989Z,22.70
2022-09-04T12:57:38.023Z,22.70
2022-09-04T13:00:12.378Z,23.00
2022-09-04T13:02:44.899Z,23.20
2022-09-04T13:05:33.368Z,23.20
2022-09-04T13:08:19.352Z,23.40
2022-09-04T13:11:21.397Z,23.20
2022-09-04T13:14:07.498Z,23.30
2022-09-04T13:16:55.110Z,23.50
2022-09-04T13:19:36.010Z,23.50
2022-09-04T13:22:32.346Z,23.70
2022-09-04T13:25:27.249Z,23.50
2022-09-04T13:28:42.399Z,23.90
2022-09-04T13:31:33.472Z,24.20
2022-09-04T13:34:24.394Z,24.60
2022-09-04T13:37:29.194Z,24.90
2022-09-04T13:40:04.808Z,25.00
2022-09-04T13:42:42.534Z,25.20
2022-09-04T13:45:14.101Z,25.20
2022-09-04T13:47:54.316Z,25.10
2022-09-04T13:50:35.945Z,24.70
2022-09-04T13:53:17.056Z,24.50
2022-09-04T13:55:54.406Z,24.40
2022-09-04T13:58:28.287Z,23.50
2022-09-04T14:00:59.461Z,23.70
2022-09-04T14:03:50.314Z,24.50
2022-09-04T14:06:21.514Z,25.60
2022-09-04T14:09:04.205Z,26.00
2022-09-04T14:11:46.904Z,25.90
2022-09-04T14:14:40.798Z,25.80
2022-09-04T14:17:09.327Z,26.00
2022-09-04T14:19:57.603Z,25.70
2022-09-04T14:22:49.367Z,26.40
2022-09-04T14:25:40.829Z,25.70
2022-09-04T14:28:16.223Z,26.20
2022-09-04T14:31:22.831Z,25.60
2022-09-04T14:34:13.716Z,24.90
2022-09-04T14:37:00.727Z,24.80
2022-09-04T14:39:36.637Z,25.30
2022-09-04T14:42:30.453Z,25.40
2022-09-04T14:45:32.333Z,26.30
2022-09-04T14:48:04.638Z,26.50
2022-09-04T14:50:43.526Z,25.80
2022-09-04T14:53:10.815Z,25.40
2022-09-04T14:56:01.899Z,25.40
2022-09-04T14:58:34.816Z,24.90
2022-09-04T15:01:19.531Z,24.80
2022-09-04T15:03:55.453Z,24.90
2022-09-04T15:06:54.789Z,24.70
2022-09-04T15:09:39.043Z,24.70
2022-09-04T15:12:24.602Z,24.50
2022-09-04T15:15:46.467Z,24.00
2022-09-04T15:18:29.645Z,23.80
2022-09-04T15:21:02.145Z,24.20
2022-09-04T15:23:41.141Z,24.40
2022-09-04T15:26:37.533Z,24.10
2022-09-04T15:29:26.036Z,24.10
2022-09-04T15:32:03.021Z,24.00
2022-09-04T15:34:32.300Z,23.30
2022-09-04T15:37:13.433Z,23.60
2022-09-04T15:39:58.165Z,23.80
2022-09-04T15:43:02.161Z,23.80
2022-09-04T15:45:50.824Z,23.30
2022-09-04T15:48:33.362Z,23.30
2022-09-04T15:51:00.177Z,23.50
2022-09-04T15:53:35.908Z,23.50
2022-09-04T15:56:28.137Z,23.00
2022-09-04T15:59:21.050Z,22.90
2022-09-04T16:02:11.632Z,23.00
2022-09-04T16:04:53.005Z,23.20
2022-09-04T16:07:54.715Z,23.20
2022-09-04T16:10:39.664Z,23.00
2022-09-04T16:13:30.001Z,23.20
2022-09-04T16:16:04.371Z,23.10
2022-09-04T16:18:49.212Z,23.10
2022-09-04T16:21:40.664Z,23.00
2022-09-04T16:24:17.965Z,22.60
2022-09-04T16:26:50.990Z,22.60
2022-09-04T16:29:28.645Z,22.60
2022-09-04T16:31:57.792Z,22.70
2022-09-04T16:34:26.873Z,22.70
2022-09-04T16:37:05.126Z,22.70
2022-09-04T16:39:46.890Z,22.80
2022-09-04T16:42:29.927Z,22.80
2022-09-04T16:45:22.280Z,22.80
2022-09-04T16:48:43.291Z,22.80
2022-09-04T16:51:09.939Z,22.90
2022-09-04T16:54:05.228Z,23.00
2022-09-04T16:56:42.808Z,22.90
2022-09-04T16:59:54.425Z,22.80
2022-09-04T17:02:36.351Z,22.80
2022-09-04T17:05:18.917Z,22.80
2022-09-04T17:08:22.307Z,22.80
2022-09-04T17:10:56.980Z,22.80
2022-09-04T17:13:30.821Z,22.70
2022-09-04T17:16:21.697Z,22.50
2022-09-04T17:18:54.517Z,22.40
2022-09-04T17:27:05.091Z,22.50
2022-09-04T17:29:09.210Z,22.40
2022-09-04T17:29:10.936Z,22.40
2022-09-04T17:31:05.497Z,22.40
2022-09-04T17:38:02.994Z,22.30
2022-09-04T17:40:40.889Z,22.30
2022-09-04T17:40:55.436Z,22.20
2022-09-04T17:43:15.833Z,22.30
2022-09-04T17:46:09.455Z,22.30
2022-09-04T17:48:44.879Z,22.30
2022-09-04T17:51:38.532Z,22.10
2022-09-04T17:54:13.398Z,22.20
2022-09-04T17:56:51.036Z,22.00
2022-09-04T17:59:33.043Z,22.10
2022-09-04T18:02:27.774Z,22.10
2022-09-04T18:05:03.436Z,22.20
2022-09-04T18:08:08.100Z,22.10
2022-09-04T18:10:46.783Z,22.00
2022-09-04T18:13:37.404Z,22.00
2022-09-04T18:16:09.584Z,22.00
2022-09-04T18:18:48.121Z,22.20
2022-09-04T18:21:19.050Z,22.10
2022-09-04T18:23:58.983Z,22.20
2022-09-04T18:26:52.361Z,22.20
2022-09-04T18:30:57.230Z,22.10
2022-09-04T18:37:07.811Z,22.00
2022-09-04T18:37:21.500Z,22.10
2022-09-04T18:39:10.084Z,22.10
2022-09-04T18:50:22.853Z,22.10
2022-09-04T18:50:32.099Z,22.10
2022-09-04T18:50:44.669Z,22.20
2022-09-04T18:53:43.908Z,21.90
2022-09-04T18:56:22.241Z,21.50
2022-09-04T18:58:51.934Z,21.40
2022-09-04T19:01:27.278Z,21.50
2022-09-04T19:04:20.392Z,21.70
2022-09-04T19:07:08.370Z,21.80
2022-09-04T19:10:09.118Z,21.90
2022-09-04T19:12:52.177Z,21.90
2022-09-04T19:15:22.022Z,21.90
2022-09-04T19:18:05.735Z,21.80
2022-09-04T19:20:44.875Z,21.70
2022-09-04T19:23:22.285Z,21.80
2022-09-04T19:25:50.211Z,21.80
2022-09-04T19:28:39.979Z,21.80
2022-09-04T19:31:26.209Z,21.70
2022-09-04T19:34:03.870Z,21.70
2022-09-04T19:36:43.721Z,21.70
2022-09-04T19:45:54.409Z,21.70
2022-09-04T19:45:59.684Z,21.70
2022-09-04T19:46:25.009Z,21.70
2022-09-04T19:50:09.416Z,21.70
2022-09-04T19:53:24.028Z,21.80
2022-09-04T19:55:23.027Z,21.80
2022-09-04T19:58:09.741Z,21.80
2022-09-04T20:00:44.492Z,21.80
2022-09-04T20:03:47.709Z,21.80
2022-09-04T20:06:22.427Z,21.70
2022-09-04T20:09:14.509Z,21.70
2022-09-04T20:11:51.129Z,21.70
2022-09-04T20:14:42.274Z,21.60
2022-09-04T20:17:22.166Z,21.50
2022-09-04T20:19:56.980Z,21.50
2022-09-04T20:22:31.938Z,21.60
2022-09-04T20:25:07.801Z,21.60
2022-09-04T20:28:03.213Z,21.70
2022-09-04T20:30:31.289Z,21.60
2022-09-04T20:33:02.028Z,21.60
2022-09-04T20:35:39.207Z,21.60
2022-09-04T20:38:23.928Z,21.60
2022-09-04T20:41:07.834Z,21.60
2022-09-04T20:44:00.816Z,21.60
2022-09-04T20:52:43.757Z,21.50
2022-09-04T20:53:00.391Z,21.30
2022-09-04T20:53:07.999Z,21.40
2022-09-04T20:55:47.191Z,21.40
2022-09-04T21:03:08.578Z,21.40
2022-09-04T21:03:19.735Z,21.40
2022-09-04T21:04:43.374Z,21.40
2022-09-04T21:07:10.565Z,21.30
2022-09-04T21:09:58.794Z,21.40
2022-09-04T21:12:40.523Z,21.40
2022-09-04T21:15:16.079Z,21.40
2022-09-04T21:18:01.513Z,21.40
2022-09-04T21:20:34.632Z,21.40
2022-09-04T21:23:27.905Z,21.40
2022-09-04T21:26:29.015Z,21.30
2022-09-04T21:29:25.137Z,21.40
2022-09-04T21:32:15.634Z,21.30
2022-09-04T21:34:56.595Z,21.30
2022-09-04T21:37:41.353Z,21.30
2022-09-04T21:40:30.930Z,21.20
2022-09-04T21:43:23.158Z,21.30
2022-09-04T21:46:28.945Z,21.30
2022-09-04T21:49:07.562Z,21.30
2022-09-04T21:51:53.916Z,21.20
2022-09-04T21:54:38.069Z,21.00
2022-09-04T22:02:30.999Z,20.70
2022-09-04T22:02:39.895Z,20.80
2022-09-04T22:04:20.778Z,20.90
2022-09-04T22:10:50.831Z,20.90
2022-09-04T22:13:27.693Z,20.80
2022-09-04T22:13:49.423Z,20.70
2022-09-04T22:17:03.105Z,20.80
2022-09-04T22:19:44.312Z,20.90
2022-09-04T22:23:23.156Z,20.90
2022-09-04T22:26:23.360Z,20.70
2022-09-04T22:29:00.471Z,20.80
2022-09-04T22:31:56.926Z,20.80
2022-09-04T22:34:52.993Z,20.90
2022-09-04T22:37:25.974Z,20.60
2022-09-04T22:39:58.690Z,20.50
2022-09-04T22:42:57.774Z,20.50
2022-09-04T22:45:50.499Z,20.40
2022-09-04T22:48:28.384Z,20.40
2022-09-04T22:51:04.494Z,20.40
2022-09-04T22:54:03.410Z,20.40
2022-09-04T22:56:53.235Z,20.50
2022-09-04T22:59:26.964Z,20.50
2022-09-04T23:02:19.892Z,20.20
2022-09-04T23:05:03.947Z,20.20
2022-09-04T23:13:46.474Z,20.30
2022-09-04T23:14:01.502Z,20.40
2022-09-04T23:14:05.177Z,20.40
2022-09-04T23:16:49.463Z,20.40
2022-09-04T23:26:33.874Z,20.30
2022-09-04T23:26:39.193Z,20.30
2022-09-04T23:26:43.772Z,20.10
2022-09-04T23:29:44.700Z,20.10
2022-09-04T23:32:22.455Z,19.90
2022-09-04T23:35:14.494Z,19.80
2022-09-04T23:38:16.629Z,19.70
2022-09-04T23:40:51.957Z,19.80
2022-09-04T23:43:36.490Z,19.80
2022-09-04T23:46:45.913Z,19.90
2022-09-04T23:49:22.221Z,20.00
2022-09-04T23:52:07.827Z,20.10
2022-09-04T23:54:40.755Z,20.00
2022-09-04T23:57:36.584Z,19.60
